コロンボ の空港の天気 - METARとTAF

バンダラナイケ国際空港 ( VCBI / CMB ) - スリランカ コロンボ
飛行場実況気象(Metar)
観測時間08/07 02:40 IST (08/06 21:10 UTC)
風向・風速南 2m/s
視程10km以上
天気現象
全天の8割程度の雲 雲底高度 550m
気温26℃
湿度94%
気圧1007hPa
METARVCBI 062110Z 17004KT 9999 BKN018 26/25 Q1007 NOSIG
過去の天気等 Google飛行場航空写真 Wunderground天気予報

過去48時間のMETAR

飛行場予報(TAF)
発表時間: 8/06 22:30 IST (8/06 17:00 UTC)
予報対象時間: 6日23時 IST ~ 8日5時 IST
風向・風速南西 5m/s
視程10km以上
全天の4割程度の雲 雲底高度 520m
7日0時 IST ~ 7日4時 IST に 確率 30% で一時的に
視程6000m
天気現象弱いしゅう雨
少しの雲 雲底高度 370m
全天の8割程度の雲 雲底高度 490m
少しの積乱雲 雲底高度 610m
TAF VCBI 061700Z 0618/0724 23010KT 9999 SCT017 TX30/0707Z TN25/0700Z
PROB30 TEMPO 0619/0623 6000 -SHRA FEW012 BKN016 FEW020CB